sensor_id;sensor_type;location;lat;lon;timestamp;temperature;humidity
15481;DHT22;7842;50.904;6.670;2023-05-07T00:00:37;15.00;99.90
15481;DHT22;7842;50.904;6.670;2023-05-07T00:03:03;14.90;99.90
15481;DHT22;7842;50.904;6.670;2023-05-07T00:05:28;14.90;99.90
15481;DHT22;7842;50.904;6.670;2023-05-07T00:07:54;14.80;99.90
15481;DHT22;7842;50.904;6.670;2023-05-07T00:10:19;16.20;99.90
15481;DHT22;7842;50.904;6.670;2023-05-07T00:12:45;14.70;99.90
15481;DHT22;7842;50.904;6.670;2023-05-07T00:15:11;14.70;99.90
15481;DHT22;7842;50.904;6.670;2023-05-07T00:17:37;14.70;99.90
15481;DHT22;7842;50.904;6.670;2023-05-07T00:20:03;14.60;99.90
15481;DHT22;7842;50.904;6.670;2023-05-07T00:22:30;14.60;99.90
15481;DHT22;7842;50.904;6.670;2023-05-07T00:24:56;14.60;99.90
15481;DHT22;7842;50.904;6.670;2023-05-07T00:27:22;14.60;99.90
15481;DHT22;7842;50.904;6.670;2023-05-07T00:29:48;15.50;99.90
15481;DHT22;7842;50.904;6.670;2023-05-07T00:32:13;14.50;99.90
15481;DHT22;7842;50.904;6.670;2023-05-07T00:34:39;14.60;99.90
15481;DHT22;7842;50.904;6.670;2023-05-07T00:37:05;14.70;99.90
15481;DHT22;7842;50.904;6.670;2023-05-07T00:39:32;14.50;99.90
15481;DHT22;7842;50.904;6.670;2023-05-07T00:41:58;14.50;99.90
15481;DHT22;7842;50.904;6.670;2023-05-07T00:44:24;14.50;99.90
15481;DHT22;7842;50.904;6.670;2023-05-07T00:46:50;14.40;99.90
15481;DHT22;7842;50.904;6.670;2023-05-07T00:49:16;14.60;99.90
15481;DHT22;7842;50.904;6.670;2023-05-07T00:51:42;14.50;99.90
15481;DHT22;7842;50.904;6.670;2023-05-07T00:54:08;14.80;99.90
15481;DHT22;7842;50.904;6.670;2023-05-07T00:56:34;14.80;99.90
15481;DHT22;7842;50.904;6.670;2023-05-07T00:59:01;14.50;99.90
15481;DHT22;7842;50.904;6.670;2023-05-07T01:01:27;14.90;99.90
15481;DHT22;7842;50.904;6.670;2023-05-07T01:03:53;14.50;99.90
15481;DHT22;7842;50.904;6.670;2023-05-07T01:06:20;14.50;99.90
15481;DHT22;7842;50.904;6.670;2023-05-07T01:08:47;14.50;99.90
15481;DHT22;7842;50.904;6.670;2023-05-07T01:11:17;14.40;99.90
15481;DHT22;7842;50.904;6.670;2023-05-07T01:13:44;14.40;99.90
15481;DHT22;7842;50.904;6.670;2023-05-07T01:16:10;15.20;99.90
15481;DHT22;7842;50.904;6.670;2023-05-07T01:18:36;14.40;99.90
15481;DHT22;7842;50.904;6.670;2023-05-07T01:21:04;14.60;99.90
15481;DHT22;7842;50.904;6.670;2023-05-07T01:23:30;14.40;99.90
15481;DHT22;7842;50.904;6.670;2023-05-07T01:25:56;14.40;99.90
15481;DHT22;7842;50.904;6.670;2023-05-07T01:28:22;14.40;99.90
15481;DHT22;7842;50.904;6.670;2023-05-07T01:30:51;14.40;99.90
15481;DHT22;7842;50.904;6.670;2023-05-07T01:33:20;14.70;99.90
15481;DHT22;7842;50.904;6.670;2023-05-07T01:35:52;14.50;99.90
15481;DHT22;7842;50.904;6.670;2023-05-07T01:38:19;14.40;99.90
15481;DHT22;7842;50.904;6.670;2023-05-07T01:40:47;14.50;99.90
15481;DHT22;7842;50.904;6.670;2023-05-07T01:43:12;14.60;99.90
15481;DHT22;7842;50.904;6.670;2023-05-07T01:45:38;14.30;99.90
15481;DHT22;7842;50.904;6.670;2023-05-07T01:48:06;14.30;99.90
15481;DHT22;7842;50.904;6.670;2023-05-07T01:50:33;14.30;99.90
15481;DHT22;7842;50.904;6.670;2023-05-07T01:53:01;14.30;99.90
15481;DHT22;7842;50.904;6.670;2023-05-07T01:55:27;15.10;99.90
15481;DHT22;7842;50.904;6.670;2023-05-07T01:57:52;14.20;99.90
15481;DHT22;7842;50.904;6.670;2023-05-07T02:00:18;14.20;99.90
15481;DHT22;7842;50.904;6.670;2023-05-07T02:02:44;14.20;99.90
15481;DHT22;7842;50.904;6.670;2023-05-07T02:05:10;14.00;99.90
15481;DHT22;7842;50.904;6.670;2023-05-07T02:07:35;14.10;99.90
15481;DHT22;7842;50.904;6.670;2023-05-07T02:10:01;14.10;99.90
15481;DHT22;7842;50.904;6.670;2023-05-07T02:12:28;14.20;99.90
15481;DHT22;7842;50.904;6.670;2023-05-07T02:14:53;14.10;99.90
15481;DHT22;7842;50.904;6.670;2023-05-07T02:17:19;14.90;99.90
15481;DHT22;7842;50.904;6.670;2023-05-07T02:19:45;14.10;99.90
15481;DHT22;7842;50.904;6.670;2023-05-07T02:22:11;14.40;99.90
15481;DHT22;7842;50.904;6.670;2023-05-07T02:24:36;14.30;99.90
15481;DHT22;7842;50.904;6.670;2023-05-07T02:27:02;13.50;99.90
15481;DHT22;7842;50.904;6.670;2023-05-07T02:29:28;14.10;99.90
15481;DHT22;7842;50.904;6.670;2023-05-07T02:31:54;14.30;99.90
15481;DHT22;7842;50.904;6.670;2023-05-07T02:34:20;15.20;99.90
15481;DHT22;7842;50.904;6.670;2023-05-07T02:36:46;14.50;99.90
15481;DHT22;7842;50.904;6.670;2023-05-07T02:39:13;13.70;99.90
15481;DHT22;7842;50.904;6.670;2023-05-07T02:41:39;14.10;99.90
15481;DHT22;7842;50.904;6.670;2023-05-07T02:44:04;14.70;99.90
15481;DHT22;7842;50.904;6.670;2023-05-07T02:46:30;14.60;99.90
15481;DHT22;7842;50.904;6.670;2023-05-07T02:48:56;14.70;99.90
15481;DHT22;7842;50.904;6.670;2023-05-07T02:51:22;14.10;99.90
15481;DHT22;7842;50.904;6.670;2023-05-07T02:53:48;13.80;99.90
15481;DHT22;7842;50.904;6.670;2023-05-07T02:56:13;14.20;99.90
15481;DHT22;7842;50.904;6.670;2023-05-07T02:58:39;15.70;99.90
15481;DHT22;7842;50.904;6.670;2023-05-07T03:01:05;14.30;99.90
15481;DHT22;7842;50.904;6.670;2023-05-07T03:03:31;15.10;99.90
15481;DHT22;7842;50.904;6.670;2023-05-07T03:05:57;14.70;99.90
15481;DHT22;7842;50.904;6.670;2023-05-07T03:08:22;14.00;99.90
15481;DHT22;7842;50.904;6.670;2023-05-07T03:10:48;14.00;99.90
15481;DHT22;7842;50.904;6.670;2023-05-07T03:13:14;14.00;99.90
15481;DHT22;7842;50.904;6.670;2023-05-07T03:15:40;13.90;99.90
15481;DHT22;7842;50.904;6.670;2023-05-07T03:18:05;13.90;99.90
15481;DHT22;7842;50.904;6.670;2023-05-07T03:20:31;13.90;99.90
15481;DHT22;7842;50.904;6.670;2023-05-07T03:22:57;13.90;99.90
15481;DHT22;7842;50.904;6.670;2023-05-07T03:25:22;14.70;99.90
15481;DHT22;7842;50.904;6.670;2023-05-07T03:27:48;14.00;99.90
15481;DHT22;7842;50.904;6.670;2023-05-07T03:30:14;13.90;99.90
15481;DHT22;7842;50.904;6.670;2023-05-07T03:32:40;13.80;99.90
15481;DHT22;7842;50.904;6.670;2023-05-07T03:35:06;14.00;99.90
15481;DHT22;7842;50.904;6.670;2023-05-07T03:37:32;13.90;99.90
15481;DHT22;7842;50.904;6.670;2023-05-07T03:39:57;15.20;99.90
15481;DHT22;7842;50.904;6.670;2023-05-07T03:42:23;13.80;99.90
15481;DHT22;7842;50.904;6.670;2023-05-07T03:44:49;13.90;99.90
15481;DHT22;7842;50.904;6.670;2023-05-07T03:47:15;15.40;99.90
15481;DHT22;7842;50.904;6.670;2023-05-07T03:49:40;13.90;99.90
15481;DHT22;7842;50.904;6.670;2023-05-07T03:52:06;14.00;99.90
15481;DHT22;7842;50.904;6.670;2023-05-07T03:54:32;14.10;99.90
15481;DHT22;7842;50.904;6.670;2023-05-07T03:56:57;14.40;99.90
15481;DHT22;7842;50.904;6.670;2023-05-07T03:59:23;14.70;99.90
15481;DHT22;7842;50.904;6.670;2023-05-07T04:01:49;13.90;99.90
15481;DHT22;7842;50.904;6.670;2023-05-07T04:04:15;14.60;99.90
15481;DHT22;7842;50.904;6.670;2023-05-07T04:06:41;13.70;99.90
15481;DHT22;7842;50.904;6.670;2023-05-07T04:09:07;14.10;99.90
15481;DHT22;7842;50.904;6.670;2023-05-07T04:11:33;14.00;99.90
15481;DHT22;7842;50.904;6.670;2023-05-07T04:13:58;13.70;99.90
15481;DHT22;7842;50.904;6.670;2023-05-07T04:16:24;14.00;99.90
15481;DHT22;7842;50.904;6.670;2023-05-07T04:18:49;13.90;99.90
15481;DHT22;7842;50.904;6.670;2023-05-07T04:21:16;13.90;99.90
15481;DHT22;7842;50.904;6.670;2023-05-07T04:23:42;14.10;99.90
15481;DHT22;7842;50.904;6.670;2023-05-07T04:33:29;14.40;99.90
15481;DHT22;7842;50.904;6.670;2023-05-07T04:35:55;14.40;99.90
15481;DHT22;7842;50.904;6.670;2023-05-07T04:38:21;14.30;99.90
15481;DHT22;7842;50.904;6.670;2023-05-07T04:40:46;14.40;99.90
15481;DHT22;7842;50.904;6.670;2023-05-07T04:43:12;14.40;99.90
15481;DHT22;7842;50.904;6.670;2023-05-07T04:45:38;15.00;99.90
15481;DHT22;7842;50.904;6.670;2023-05-07T04:48:06;14.40;99.90
15481;DHT22;7842;50.904;6.670;2023-05-07T04:50:32;14.40;99.90
15481;DHT22;7842;50.904;6.670;2023-05-07T04:52:58;14.40;99.90
15481;DHT22;7842;50.904;6.670;2023-05-07T04:55:24;14.30;99.90
15481;DHT22;7842;50.904;6.670;2023-05-07T04:57:49;14.30;99.90
15481;DHT22;7842;50.904;6.670;2023-05-07T05:00:15;14.70;99.90
15481;DHT22;7842;50.904;6.670;2023-05-07T05:02:42;14.40;99.90
15481;DHT22;7842;50.904;6.670;2023-05-07T05:05:07;15.00;99.90
15481;DHT22;7842;50.904;6.670;2023-05-07T05:07:33;14.30;99.90
15481;DHT22;7842;50.904;6.670;2023-05-07T05:09:59;14.30;99.90
15481;DHT22;7842;50.904;6.670;2023-05-07T05:12:25;14.50;99.90
15481;DHT22;7842;50.904;6.670;2023-05-07T05:14:50;14.50;99.90
15481;DHT22;7842;50.904;6.670;2023-05-07T05:17:16;14.50;99.90
15481;DHT22;7842;50.904;6.670;2023-05-07T05:19:42;14.50;99.90
15481;DHT22;7842;50.904;6.670;2023-05-07T05:22:07;14.70;99.90
15481;DHT22;7842;50.904;6.670;2023-05-07T05:24:33;14.50;99.90
15481;DHT22;7842;50.904;6.670;2023-05-07T05:26:58;14.50;99.90
15481;DHT22;7842;50.904;6.670;2023-05-07T05:29:26;14.60;99.90
15481;DHT22;7842;50.904;6.670;2023-05-07T05:31:52;14.50;99.90
15481;DHT22;7842;50.904;6.670;2023-05-07T05:34:17;14.40;99.90
15481;DHT22;7842;50.904;6.670;2023-05-07T05:36:45;14.90;99.90
15481;DHT22;7842;50.904;6.670;2023-05-07T05:39:13;14.50;99.90
15481;DHT22;7842;50.904;6.670;2023-05-07T05:41:39;14.60;99.90
15481;DHT22;7842;50.904;6.670;2023-05-07T05:44:05;14.60;99.90
15481;DHT22;7842;50.904;6.670;2023-05-07T05:46:31;14.70;99.90
15481;DHT22;7842;50.904;6.670;2023-05-07T05:48:56;14.90;99.90
15481;DHT22;7842;50.904;6.670;2023-05-07T05:51:22;14.70;99.90
15481;DHT22;7842;50.904;6.670;2023-05-07T05:53:48;14.90;99.90
15481;DHT22;7842;50.904;6.670;2023-05-07T05:56:15;15.00;99.90
15481;DHT22;7842;50.904;6.670;2023-05-07T05:58:41;15.60;99.90
15481;DHT22;7842;50.904;6.670;2023-05-07T06:01:07;16.50;99.90
15481;DHT22;7842;50.904;6.670;2023-05-07T06:03:32;18.20;99.90
15481;DHT22;7842;50.904;6.670;2023-05-07T06:05:58;17.40;99.90
15481;DHT22;7842;50.904;6.670;2023-05-07T06:08:25;16.90;99.90
15481;DHT22;7842;50.904;6.670;2023-05-07T06:10:51;17.00;99.90
15481;DHT22;7842;50.904;6.670;2023-05-07T06:13:16;16.10;99.90
15481;DHT22;7842;50.904;6.670;2023-05-07T06:15:42;16.00;99.90
15481;DHT22;7842;50.904;6.670;2023-05-07T06:18:08;16.00;99.90
15481;DHT22;7842;50.904;6.670;2023-05-07T06:20:33;16.10;99.90
15481;DHT22;7842;50.904;6.670;2023-05-07T06:22:59;15.80;99.90
15481;DHT22;7842;50.904;6.670;2023-05-07T06:25:25;16.10;99.90
15481;DHT22;7842;50.904;6.670;2023-05-07T06:27:50;16.30;99.90
15481;DHT22;7842;50.904;6.670;2023-05-07T06:30:16;16.40;99.90
15481;DHT22;7842;50.904;6.670;2023-05-07T06:32:42;16.70;99.90
15481;DHT22;7842;50.904;6.670;2023-05-07T06:35:08;16.70;99.90
15481;DHT22;7842;50.904;6.670;2023-05-07T06:37:33;16.60;99.90
15481;DHT22;7842;50.904;6.670;2023-05-07T06:39:59;16.60;99.90
15481;DHT22;7842;50.904;6.670;2023-05-07T06:42:24;16.80;99.90
15481;DHT22;7842;50.904;6.670;2023-05-07T06:44:50;16.70;99.90
15481;DHT22;7842;50.904;6.670;2023-05-07T06:47:16;16.50;99.90
15481;DHT22;7842;50.904;6.670;2023-05-07T06:49:42;16.50;99.90
15481;DHT22;7842;50.904;6.670;2023-05-07T06:52:07;16.50;99.90
15481;DHT22;7842;50.904;6.670;2023-05-07T06:54:33;16.50;99.90
15481;DHT22;7842;50.904;6.670;2023-05-07T07:23:55;17.80;99.90
15481;DHT22;7842;50.904;6.670;2023-05-07T07:26:21;17.70;99.90
15481;DHT22;7842;50.904;6.670;2023-05-07T07:28:47;17.60;99.90
15481;DHT22;7842;50.904;6.670;2023-05-07T07:31:13;17.80;99.90
15481;DHT22;7842;50.904;6.670;2023-05-07T07:33:39;17.80;99.90
15481;DHT22;7842;50.904;6.670;2023-05-07T07:36:06;17.90;99.90
15481;DHT22;7842;50.904;6.670;2023-05-07T07:38:33;17.90;99.90
15481;DHT22;7842;50.904;6.670;2023-05-07T07:41:12;18.20;99.90
15481;DHT22;7842;50.904;6.670;2023-05-07T07:43:38;17.90;99.90
15481;DHT22;7842;50.904;6.670;2023-05-07T07:48:33;18.10;99.90
15481;DHT22;7842;50.904;6.670;2023-05-07T07:50:59;18.10;99.90
15481;DHT22;7842;50.904;6.670;2023-05-07T08:13:03;18.80;99.90
15481;DHT22;7842;50.904;6.670;2023-05-07T08:15:29;18.80;99.90
15481;DHT22;7842;50.904;6.670;2023-05-07T08:17:55;18.90;99.90
15481;DHT22;7842;50.904;6.670;2023-05-07T08:20:23;18.80;99.90
15481;DHT22;7842;50.904;6.670;2023-05-07T08:22:48;19.00;99.90
15481;DHT22;7842;50.904;6.670;2023-05-07T08:25:14;19.30;99.90
15481;DHT22;7842;50.904;6.670;2023-05-07T08:27:39;19.30;99.90
15481;DHT22;7842;50.904;6.670;2023-05-07T08:30:06;19.40;99.90
15481;DHT22;7842;50.904;6.670;2023-05-07T08:32:31;19.50;99.90
15481;DHT22;7842;50.904;6.670;2023-05-07T08:34:57;19.50;99.90
15481;DHT22;7842;50.904;6.670;2023-05-07T08:37:22;20.10;99.90
15481;DHT22;7842;50.904;6.670;2023-05-07T08:39:48;20.00;99.90
15481;DHT22;7842;50.904;6.670;2023-05-07T08:49:40;20.40;99.90
15481;DHT22;7842;50.904;6.670;2023-05-07T08:52:06;20.30;99.90
15481;DHT22;7842;50.904;6.670;2023-05-07T08:54:32;20.10;99.90
15481;DHT22;7842;50.904;6.670;2023-05-07T08:56:59;19.90;99.90
15481;DHT22;7842;50.904;6.670;2023-05-07T08:59:25;20.00;99.90
15481;DHT22;7842;50.904;6.670;2023-05-07T09:01:51;20.20;99.90
15481;DHT22;7842;50.904;6.670;2023-05-07T09:21:33;21.10;99.90
15481;DHT22;7842;50.904;6.670;2023-05-07T09:33:45;21.40;99.90
15481;DHT22;7842;50.904;6.670;2023-05-07T09:36:10;21.50;99.90
15481;DHT22;7842;50.904;6.670;2023-05-07T09:38:37;21.60;99.90
15481;DHT22;7842;50.904;6.670;2023-05-07T09:41:05;22.00;99.90
15481;DHT22;7842;50.904;6.670;2023-05-07T09:43:33;21.70;99.90
15481;DHT22;7842;50.904;6.670;2023-05-07T09:46:03;21.70;99.90
15481;DHT22;7842;50.904;6.670;2023-05-07T10:10:33;22.60;99.90
15481;DHT22;7842;50.904;6.670;2023-05-07T10:15:25;22.30;99.90
15481;DHT22;7842;50.904;6.670;2023-05-07T10:17:51;22.30;99.90
15481;DHT22;7842;50.904;6.670;2023-05-07T10:20:18;22.10;99.90
15481;DHT22;7842;50.904;6.670;2023-05-07T10:22:46;22.30;99.90
15481;DHT22;7842;50.904;6.670;2023-05-07T10:25:22;22.50;99.90
15481;DHT22;7842;50.904;6.670;2023-05-07T10:27:49;22.70;99.90
15481;DHT22;7842;50.904;6.670;2023-05-07T10:33:05;22.20;99.90
15481;DHT22;7842;50.904;6.670;2023-05-07T10:35:38;22.60;99.90
15481;DHT22;7842;50.904;6.670;2023-05-07T10:38:06;22.20;99.90
15481;DHT22;7842;50.904;6.670;2023-05-07T10:40:31;22.20;99.90
15481;DHT22;7842;50.904;6.670;2023-05-07T10:42:59;22.40;99.90
15481;DHT22;7842;50.904;6.670;2023-05-07T10:45:26;22.50;99.90
15481;DHT22;7842;50.904;6.670;2023-05-07T10:48:14;22.50;99.90
15481;DHT22;7842;50.904;6.670;2023-05-07T10:50:44;22.50;99.90
15481;DHT22;7842;50.904;6.670;2023-05-07T10:55:47;22.40;99.90
15481;DHT22;7842;50.904;6.670;2023-05-07T10:58:24;22.40;99.90
15481;DHT22;7842;50.904;6.670;2023-05-07T11:00:59;22.30;99.90
15481;DHT22;7842;50.904;6.670;2023-05-07T11:03:26;22.50;99.90
15481;DHT22;7842;50.904;6.670;2023-05-07T11:11:18;24.00;99.90
15481;DHT22;7842;50.904;6.670;2023-05-07T11:13:46;22.10;99.90
15481;DHT22;7842;50.904;6.670;2023-05-07T11:16:19;22.10;99.90
15481;DHT22;7842;50.904;6.670;2023-05-07T11:18:55;22.20;99.90
15481;DHT22;7842;50.904;6.670;2023-05-07T11:21:41;22.20;99.90
15481;DHT22;7842;50.904;6.670;2023-05-07T11:24:08;22.00;99.90
15481;DHT22;7842;50.904;6.670;2023-05-07T11:26:44;22.00;99.90
15481;DHT22;7842;50.904;6.670;2023-05-07T11:29:28;22.00;99.90
15481;DHT22;7842;50.904;6.670;2023-05-07T11:31:55;22.10;99.90
15481;DHT22;7842;50.904;6.670;2023-05-07T11:34:22;21.80;99.90
15481;DHT22;7842;50.904;6.670;2023-05-07T11:36:48;21.80;99.90
15481;DHT22;7842;50.904;6.670;2023-05-07T11:39:29;21.80;99.90
15481;DHT22;7842;50.904;6.670;2023-05-07T11:41:55;21.70;99.90
15481;DHT22;7842;50.904;6.670;2023-05-07T11:44:21;21.80;99.90
15481;DHT22;7842;50.904;6.670;2023-05-07T11:46:46;21.80;99.90
15481;DHT22;7842;50.904;6.670;2023-05-07T11:49:12;21.70;99.90
15481;DHT22;7842;50.904;6.670;2023-05-07T11:51:38;21.80;99.90
15481;DHT22;7842;50.904;6.670;2023-05-07T11:54:04;21.80;99.90
15481;DHT22;7842;50.904;6.670;2023-05-07T11:56:34;21.60;99.90
15481;DHT22;7842;50.904;6.670;2023-05-07T11:59:01;22.00;99.90
15481;DHT22;7842;50.904;6.670;2023-05-07T12:01:27;22.10;99.90
15481;DHT22;7842;50.904;6.670;2023-05-07T12:03:54;21.80;99.90
15481;DHT22;7842;50.904;6.670;2023-05-07T12:06:20;21.80;99.90
15481;DHT22;7842;50.904;6.670;2023-05-07T12:08:46;21.80;99.90
15481;DHT22;7842;50.904;6.670;2023-05-07T12:11:25;21.60;99.90
15481;DHT22;7842;50.904;6.670;2023-05-07T12:13:51;21.50;99.90
15481;DHT22;7842;50.904;6.670;2023-05-07T12:16:17;21.40;99.90
15481;DHT22;7842;50.904;6.670;2023-05-07T12:18:44;21.40;99.90
15481;DHT22;7842;50.904;6.670;2023-05-07T12:21:10;21.60;99.90
15481;DHT22;7842;50.904;6.670;2023-05-07T12:23:40;21.60;99.90
15481;DHT22;7842;50.904;6.670;2023-05-07T12:26:06;21.70;99.90
15481;DHT22;7842;50.904;6.670;2023-05-07T12:28:36;21.60;99.90
15481;DHT22;7842;50.904;6.670;2023-05-07T12:31:06;21.60;99.90
15481;DHT22;7842;50.904;6.670;2023-05-07T12:33:32;21.70;99.90
15481;DHT22;7842;50.904;6.670;2023-05-07T12:36:03;21.70;99.90
15481;DHT22;7842;50.904;6.670;2023-05-07T12:38:37;21.60;99.90
15481;DHT22;7842;50.904;6.670;2023-05-07T12:41:03;21.60;99.90
15481;DHT22;7842;50.904;6.670;2023-05-07T12:43:30;21.60;99.90
15481;DHT22;7842;50.904;6.670;2023-05-07T12:46:01;21.60;99.90
15481;DHT22;7842;50.904;6.670;2023-05-07T12:48:29;21.50;99.90
15481;DHT22;7842;50.904;6.670;2023-05-07T12:50:56;21.40;99.90
15481;DHT22;7842;50.904;6.670;2023-05-07T12:53:23;21.30;99.90
15481;DHT22;7842;50.904;6.670;2023-05-07T12:55:54;21.00;99.90
15481;DHT22;7842;50.904;6.670;2023-05-07T12:58:24;20.80;99.90
15481;DHT22;7842;50.904;6.670;2023-05-07T13:00:51;20.60;99.90
15481;DHT22;7842;50.904;6.670;2023-05-07T13:03:28;20.50;99.90
15481;DHT22;7842;50.904;6.670;2023-05-07T13:06:02;20.20;99.90
15481;DHT22;7842;50.904;6.670;2023-05-07T13:08:34;20.00;99.90
15481;DHT22;7842;50.904;6.670;2023-05-07T13:11:01;19.80;99.90
15481;DHT22;7842;50.904;6.670;2023-05-07T13:13:37;19.70;99.90
15481;DHT22;7842;50.904;6.670;2023-05-07T13:16:03;19.50;99.90
15481;DHT22;7842;50.904;6.670;2023-05-07T13:18:32;19.30;99.90
15481;DHT22;7842;50.904;6.670;2023-05-07T13:20:59;19.30;99.90
15481;DHT22;7842;50.904;6.670;2023-05-07T13:23:25;19.30;99.90
15481;DHT22;7842;50.904;6.670;2023-05-07T13:25:51;19.30;99.90
15481;DHT22;7842;50.904;6.670;2023-05-07T13:28:21;19.40;99.90
15481;DHT22;7842;50.904;6.670;2023-05-07T13:30:47;19.30;99.90
15481;DHT22;7842;50.904;6.670;2023-05-07T13:33:17;19.30;99.90
15481;DHT22;7842;50.904;6.670;2023-05-07T13:35:43;19.40;99.90
15481;DHT22;7842;50.904;6.670;2023-05-07T13:38:09;19.40;99.90
15481;DHT22;7842;50.904;6.670;2023-05-07T13:40:35;19.50;99.90
15481;DHT22;7842;50.904;6.670;2023-05-07T13:43:05;19.20;99.90
15481;DHT22;7842;50.904;6.670;2023-05-07T13:45:31;19.20;99.90
15481;DHT22;7842;50.904;6.670;2023-05-07T13:47:57;18.90;99.90
15481;DHT22;7842;50.904;6.670;2023-05-07T13:50:23;18.80;99.90
15481;DHT22;7842;50.904;6.670;2023-05-07T13:52:49;18.60;99.90
15481;DHT22;7842;50.904;6.670;2023-05-07T13:55:21;18.60;99.90
15481;DHT22;7842;50.904;6.670;2023-05-07T13:57:47;18.60;99.90
15481;DHT22;7842;50.904;6.670;2023-05-07T14:00:14;18.60;99.90
15481;DHT22;7842;50.904;6.670;2023-05-07T14:02:41;18.60;99.90
15481;DHT22;7842;50.904;6.670;2023-05-07T14:05:07;18.50;99.90
15481;DHT22;7842;50.904;6.670;2023-05-07T14:07:34;18.50;99.90
15481;DHT22;7842;50.904;6.670;2023-05-07T14:10:00;18.40;99.90
15481;DHT22;7842;50.904;6.670;2023-05-07T14:12:25;19.00;99.90
15481;DHT22;7842;50.904;6.670;2023-05-07T14:14:51;18.40;99.90
15481;DHT22;7842;50.904;6.670;2023-05-07T14:17:17;18.40;99.90
15481;DHT22;7842;50.904;6.670;2023-05-07T14:19:43;18.40;99.90
15481;DHT22;7842;50.904;6.670;2023-05-07T14:22:09;18.40;99.90
15481;DHT22;7842;50.904;6.670;2023-05-07T14:24:35;18.50;99.90
15481;DHT22;7842;50.904;6.670;2023-05-07T14:27:01;18.50;99.90
15481;DHT22;7842;50.904;6.670;2023-05-07T14:29:27;18.50;99.90
15481;DHT22;7842;50.904;6.670;2023-05-07T14:31:53;18.60;99.90
15481;DHT22;7842;50.904;6.670;2023-05-07T14:34:19;18.80;99.90
15481;DHT22;7842;50.904;6.670;2023-05-07T14:36:47;18.90;99.90
15481;DHT22;7842;50.904;6.670;2023-05-07T14:39:13;18.90;99.90
15481;DHT22;7842;50.904;6.670;2023-05-07T14:41:38;19.00;99.90
15481;DHT22;7842;50.904;6.670;2023-05-07T14:44:04;19.00;99.90
15481;DHT22;7842;50.904;6.670;2023-05-07T14:46:30;19.00;99.90
15481;DHT22;7842;50.904;6.670;2023-05-07T14:48:58;19.00;99.90
15481;DHT22;7842;50.904;6.670;2023-05-07T14:51:24;19.00;99.90
15481;DHT22;7842;50.904;6.670;2023-05-07T14:53:51;18.80;99.90
15481;DHT22;7842;50.904;6.670;2023-05-07T14:56:19;18.90;99.90
15481;DHT22;7842;50.904;6.670;2023-05-07T14:58:48;19.00;99.90
15481;DHT22;7842;50.904;6.670;2023-05-07T15:01:14;19.20;99.90
15481;DHT22;7842;50.904;6.670;2023-05-07T15:03:40;19.20;99.90
15481;DHT22;7842;50.904;6.670;2023-05-07T15:06:06;19.00;99.90
15481;DHT22;7842;50.904;6.670;2023-05-07T15:08:31;18.70;99.90
15481;DHT22;7842;50.904;6.670;2023-05-07T15:10:57;19.10;99.90
15481;DHT22;7842;50.904;6.670;2023-05-07T15:13:23;19.20;99.90
15481;DHT22;7842;50.904;6.670;2023-05-07T15:15:48;19.30;99.90
15481;DHT22;7842;50.904;6.670;2023-05-07T15:18:15;19.30;99.90
15481;DHT22;7842;50.904;6.670;2023-05-07T15:20:41;19.40;99.90
15481;DHT22;7842;50.904;6.670;2023-05-07T15:23:08;19.40;99.90
15481;DHT22;7842;50.904;6.670;2023-05-07T15:25:38;19.90;99.90
15481;DHT22;7842;50.904;6.670;2023-05-07T15:28:04;20.10;99.90
15481;DHT22;7842;50.904;6.670;2023-05-07T15:30:29;19.20;99.90
15481;DHT22;7842;50.904;6.670;2023-05-07T15:32:55;19.40;99.90
15481;DHT22;7842;50.904;6.670;2023-05-07T15:35:21;19.50;99.90
15481;DHT22;7842;50.904;6.670;2023-05-07T15:37:50;19.70;99.90
15481;DHT22;7842;50.904;6.670;2023-05-07T15:40:19;19.60;99.90
15481;DHT22;7842;50.904;6.670;2023-05-07T15:42:45;19.40;99.90
15481;DHT22;7842;50.904;6.670;2023-05-07T15:45:11;19.60;99.90
15481;DHT22;7842;50.904;6.670;2023-05-07T15:47:36;19.60;99.90
15481;DHT22;7842;50.904;6.670;2023-05-07T15:50:03;19.70;99.90
15481;DHT22;7842;50.904;6.670;2023-05-07T15:52:32;19.80;99.90
15481;DHT22;7842;50.904;6.670;2023-05-07T15:54:58;19.80;99.90
15481;DHT22;7842;50.904;6.670;2023-05-07T15:57:24;19.50;99.90
15481;DHT22;7842;50.904;6.670;2023-05-07T15:59:52;19.60;99.90
15481;DHT22;7842;50.904;6.670;2023-05-07T16:02:18;19.50;99.90
15481;DHT22;7842;50.904;6.670;2023-05-07T16:04:43;19.70;99.90
15481;DHT22;7842;50.904;6.670;2023-05-07T16:07:09;19.70;99.90
15481;DHT22;7842;50.904;6.670;2023-05-07T16:09:35;19.50;99.90
15481;DHT22;7842;50.904;6.670;2023-05-07T16:12:00;19.50;99.90
15481;DHT22;7842;50.904;6.670;2023-05-07T16:14:26;19.80;99.90
15481;DHT22;7842;50.904;6.670;2023-05-07T16:19:18;19.30;99.90
15481;DHT22;7842;50.904;6.670;2023-05-07T16:21:44;19.50;99.90
15481;DHT22;7842;50.904;6.670;2023-05-07T16:26:36;19.40;99.90
15481;DHT22;7842;50.904;6.670;2023-05-07T16:29:03;19.50;99.90
15481;DHT22;7842;50.904;6.670;2023-05-07T16:31:29;19.60;99.90
15481;DHT22;7842;50.904;6.670;2023-05-07T16:33:58;19.70;99.90
15481;DHT22;7842;50.904;6.670;2023-05-07T16:36:27;19.50;99.90
15481;DHT22;7842;50.904;6.670;2023-05-07T16:38:54;19.40;99.90
15481;DHT22;7842;50.904;6.670;2023-05-07T16:41:20;19.30;99.90
15481;DHT22;7842;50.904;6.670;2023-05-07T16:43:46;19.50;99.90
15481;DHT22;7842;50.904;6.670;2023-05-07T16:46:12;19.50;99.90
15481;DHT22;7842;50.904;6.670;2023-05-07T16:48:37;19.40;99.90
15481;DHT22;7842;50.904;6.670;2023-05-07T16:51:03;19.40;99.90
15481;DHT22;7842;50.904;6.670;2023-05-07T16:53:29;19.30;99.90
15481;DHT22;7842;50.904;6.670;2023-05-07T16:55:54;19.20;99.90
15481;DHT22;7842;50.904;6.670;2023-05-07T16:58:21;19.30;99.90
15481;DHT22;7842;50.904;6.670;2023-05-07T17:00:47;19.10;99.90
15481;DHT22;7842;50.904;6.670;2023-05-07T17:03:13;19.50;99.90
15481;DHT22;7842;50.904;6.670;2023-05-07T17:05:39;19.30;99.90
15481;DHT22;7842;50.904;6.670;2023-05-07T17:08:05;18.30;99.90
15481;DHT22;7842;50.904;6.670;2023-05-07T17:10:30;19.20;99.90
15481;DHT22;7842;50.904;6.670;2023-05-07T17:12:56;19.20;99.90
15481;DHT22;7842;50.904;6.670;2023-05-07T17:15:21;19.10;99.90
15481;DHT22;7842;50.904;6.670;2023-05-07T17:17:47;19.10;99.90
15481;DHT22;7842;50.904;6.670;2023-05-07T17:20:13;19.00;99.90
15481;DHT22;7842;50.904;6.670;2023-05-07T17:22:39;19.00;99.90
15481;DHT22;7842;50.904;6.670;2023-05-07T17:25:05;19.00;99.90
15481;DHT22;7842;50.904;6.670;2023-05-07T17:27:31;19.00;99.90
15481;DHT22;7842;50.904;6.670;2023-05-07T17:29:58;19.00;99.90
15481;DHT22;7842;50.904;6.670;2023-05-07T17:32:24;18.90;99.90
15481;DHT22;7842;50.904;6.670;2023-05-07T17:34:50;19.00;99.90
15481;DHT22;7842;50.904;6.670;2023-05-07T17:37:16;19.00;99.90
15481;DHT22;7842;50.904;6.670;2023-05-07T17:39:41;18.90;99.90
15481;DHT22;7842;50.904;6.670;2023-05-07T17:42:07;18.90;99.90
15481;DHT22;7842;50.904;6.670;2023-05-07T17:44:34;18.90;99.90
15481;DHT22;7842;50.904;6.670;2023-05-07T17:47:00;18.80;99.90
15481;DHT22;7842;50.904;6.670;2023-05-07T17:49:26;18.80;99.90
15481;DHT22;7842;50.904;6.670;2023-05-07T17:51:52;18.80;99.90